createdAt,value
2018-12-08T00:01:46.966Z,978.53
2018-12-08T00:02:46.881Z,978.61
2018-12-08T00:04:39.652Z,978.63
2018-12-08T00:05:39.590Z,978.71
2018-12-08T00:07:32.446Z,978.75
2018-12-08T00:08:32.321Z,978.68
2018-12-08T00:10:25.102Z,978.79
2018-12-08T00:11:25.038Z,978.80
2018-12-08T00:13:17.884Z,978.87
2018-12-08T00:14:17.760Z,978.87
2018-12-08T00:16:10.547Z,978.92
2018-12-08T00:17:10.482Z,978.93
2018-12-08T00:19:03.336Z,978.96
2018-12-08T00:20:03.206Z,978.97
2018-12-08T00:21:55.989Z,978.94
2018-12-08T00:22:55.927Z,979.00
2018-12-08T00:24:48.784Z,979.02
2018-12-08T00:25:48.652Z,979.03
2018-12-08T00:27:41.435Z,979.03
2018-12-08T00:28:41.374Z,979.04
2018-12-08T00:30:34.812Z,979.08
2018-12-08T00:31:34.489Z,979.11
2018-12-08T00:33:27.089Z,979.20
2018-12-08T00:34:27.029Z,979.17
2018-12-08T00:36:19.875Z,979.26
2018-12-08T00:37:19.753Z,979.38
2018-12-08T00:39:12.537Z,979.50
2018-12-08T00:40:12.473Z,979.54
2018-12-08T00:42:05.331Z,979.68
2018-12-08T00:43:05.196Z,979.65
2018-12-08T00:44:57.980Z,979.67
2018-12-08T00:45:57.917Z,979.69
2018-12-08T00:47:51.250Z,979.77
2018-12-08T00:48:51.138Z,979.79
2018-12-08T00:49:51.080Z,979.79
2018-12-08T00:50:51.125Z,979.86
2018-12-08T00:51:50.965Z,979.84
2018-12-08T00:52:50.909Z,979.86
2018-12-08T00:53:50.850Z,979.79
2018-12-08T00:54:50.804Z,979.83
2018-12-08T00:55:50.735Z,979.88
2018-12-08T00:56:50.679Z,979.81
2018-12-08T00:57:50.621Z,979.97
2018-12-08T00:58:50.568Z,979.90
2018-12-08T00:59:50.507Z,979.82
2018-12-08T01:00:50.449Z,979.82
2018-12-08T01:01:50.394Z,979.84
2018-12-08T01:02:50.335Z,979.83
2018-12-08T01:03:50.277Z,979.80
2018-12-08T01:04:50.219Z,979.86
2018-12-08T01:05:50.162Z,979.83
2018-12-08T01:06:50.109Z,979.81
2018-12-08T01:07:50.051Z,979.84
2018-12-08T01:08:49.991Z,979.86
2018-12-08T01:09:49.934Z,979.89
2018-12-08T01:10:49.877Z,979.96
2018-12-08T01:11:49.818Z,979.94
2018-12-08T01:12:49.761Z,979.98
2018-12-08T01:13:49.705Z,979.90
2018-12-08T01:14:49.648Z,979.97
2018-12-08T01:15:49.588Z,979.94
2018-12-08T01:16:49.532Z,979.99
2018-12-08T01:17:49.501Z,980.00
2018-12-08T01:18:49.512Z,980.07
2018-12-08T01:19:49.358Z,980.09
2018-12-08T01:20:49.303Z,980.15
2018-12-08T01:21:49.244Z,980.17
2018-12-08T01:22:49.188Z,980.22
2018-12-08T01:23:49.132Z,980.24
2018-12-08T01:24:49.072Z,980.29
2018-12-08T01:25:49.015Z,980.35
2018-12-08T01:26:48.959Z,980.27
2018-12-08T01:27:48.900Z,980.24
2018-12-08T01:28:48.847Z,980.41
2018-12-08T01:29:48.785Z,980.27
2018-12-08T01:30:48.730Z,980.31
2018-12-08T01:31:48.669Z,980.33
2018-12-08T01:32:48.613Z,980.39
2018-12-08T01:33:48.556Z,980.36
2018-12-08T01:34:48.498Z,980.24
2018-12-08T01:35:48.598Z,980.30
2018-12-08T01:36:48.388Z,980.36
2018-12-08T01:37:48.333Z,980.31
2018-12-08T01:38:48.273Z,980.25
2018-12-08T01:39:48.222Z,980.23
2018-12-08T01:40:48.156Z,980.30
2018-12-08T01:41:48.103Z,980.29
2018-12-08T01:42:48.043Z,980.43
2018-12-08T01:43:47.984Z,980.33
2018-12-08T01:44:47.929Z,980.32
2018-12-08T01:45:47.871Z,980.35
2018-12-08T01:46:47.813Z,980.34
2018-12-08T01:47:47.755Z,980.34
2018-12-08T01:48:47.698Z,980.28
2018-12-08T01:49:47.643Z,980.24
2018-12-08T01:50:47.582Z,980.30
2018-12-08T01:51:47.530Z,980.23
2018-12-08T01:52:47.467Z,980.28
2018-12-08T01:53:47.411Z,980.26
2018-12-08T01:54:47.353Z,980.30
2018-12-08T01:55:47.294Z,980.22
2018-12-08T01:56:47.239Z,980.26
2018-12-08T01:57:47.181Z,980.27
2018-12-08T01:58:47.123Z,980.29
2018-12-08T01:59:47.067Z,980.29
2018-12-08T02:00:47.009Z,980.22
2018-12-08T02:01:46.951Z,980.29
2018-12-08T02:02:46.897Z,980.30
2018-12-08T02:03:46.836Z,980.29
2018-12-08T02:04:46.779Z,980.29
2018-12-08T02:05:46.723Z,980.26
2018-12-08T02:06:46.664Z,980.26
2018-12-08T02:07:46.606Z,980.32
2018-12-08T02:08:46.548Z,980.30
2018-12-08T02:09:46.493Z,980.22
2018-12-08T02:10:46.434Z,980.30
2018-12-08T02:11:46.376Z,980.26
2018-12-08T02:12:46.320Z,980.31
2018-12-08T02:13:46.425Z,980.34
2018-12-08T02:14:46.204Z,980.30
2018-12-08T02:15:46.147Z,980.26
2018-12-08T02:16:46.137Z,980.25
2018-12-08T02:17:46.030Z,980.23
2018-12-08T02:18:45.975Z,980.24
2018-12-08T02:19:45.922Z,980.23
2018-12-08T02:20:45.858Z,980.27
2018-12-08T02:21:45.802Z,980.28
2018-12-08T02:22:45.747Z,980.28
2018-12-08T02:23:45.685Z,980.28
2018-12-08T02:24:45.630Z,980.31
2018-12-08T02:25:45.571Z,980.29
2018-12-08T02:26:45.513Z,980.29
2018-12-08T02:27:45.455Z,980.35
2018-12-08T02:28:45.403Z,980.37
2018-12-08T02:29:45.341Z,980.35
2018-12-08T02:30:45.283Z,980.36
2018-12-08T02:31:45.226Z,980.34
2018-12-08T02:32:45.174Z,980.27
2018-12-08T02:33:45.112Z,980.27
2018-12-08T02:34:45.058Z,980.28
2018-12-08T02:35:44.995Z,980.30
2018-12-08T02:36:44.938Z,980.23
2018-12-08T02:37:44.881Z,980.26
2018-12-08T02:38:44.825Z,980.30
2018-12-08T02:39:44.765Z,980.24
2018-12-08T02:40:44.707Z,980.23
2018-12-08T02:41:44.650Z,980.24
2018-12-08T02:42:44.597Z,980.29
2018-12-08T02:43:44.552Z,980.32
2018-12-08T02:44:44.595Z,980.29
2018-12-08T02:45:44.422Z,980.28
2018-12-08T02:46:44.364Z,980.30
2018-12-08T02:47:44.306Z,980.24
2018-12-08T02:48:44.247Z,980.26
2018-12-08T02:49:44.190Z,980.22
2018-12-08T02:50:44.135Z,980.23
2018-12-08T02:51:44.075Z,980.28
2018-12-08T02:52:44.020Z,980.23
2018-12-08T02:53:43.960Z,980.23
2018-12-08T02:54:43.904Z,980.23
2018-12-08T02:55:43.844Z,980.19
2018-12-08T02:56:43.787Z,980.18
2018-12-08T02:57:43.731Z,980.18
2018-12-08T02:58:43.673Z,980.12
2018-12-08T02:59:43.732Z,980.12
2018-12-08T03:00:43.556Z,980.11
2018-12-08T03:01:43.500Z,980.02
2018-12-08T03:02:43.441Z,980.01
2018-12-08T03:03:43.385Z,980.11
2018-12-08T03:04:43.326Z,980.19
2018-12-08T03:05:43.271Z,980.17
2018-12-08T03:06:43.213Z,980.17
2018-12-08T03:07:43.157Z,980.15
2018-12-08T03:08:43.095Z,980.20
2018-12-08T03:09:43.039Z,980.15
2018-12-08T03:10:42.982Z,980.13
2018-12-08T03:11:42.922Z,980.10
2018-12-08T03:12:42.867Z,980.10
2018-12-08T03:13:42.808Z,980.05
2018-12-08T03:14:42.754Z,980.06
2018-12-08T03:15:42.694Z,980.14
2018-12-08T03:16:42.636Z,980.09
2018-12-08T03:17:42.578Z,980.12
2018-12-08T03:18:42.521Z,980.22
2018-12-08T03:19:42.462Z,980.19
2018-12-08T03:20:42.406Z,980.25
2018-12-08T03:21:42.349Z,980.26
2018-12-08T03:22:42.291Z,980.26
2018-12-08T03:23:42.232Z,980.26
2018-12-08T03:24:42.176Z,980.26
2018-12-08T03:25:42.117Z,980.27
2018-12-08T03:26:42.064Z,980.28
2018-12-08T03:27:42.014Z,980.34
2018-12-08T03:28:41.945Z,980.35
2018-12-08T03:29:41.886Z,980.29
2018-12-08T03:30:41.841Z,980.31
2018-12-08T03:31:41.778Z,980.33
2018-12-08T03:32:41.716Z,980.33
2018-12-08T03:33:41.658Z,980.27
2018-12-08T03:34:41.604Z,980.37
2018-12-08T03:35:41.542Z,980.32
2018-12-08T03:36:41.484Z,980.33
2018-12-08T03:37:41.428Z,980.35
2018-12-08T03:38:41.369Z,980.39
2018-12-08T03:39:41.313Z,980.44
2018-12-08T03:40:41.255Z,980.49
2018-12-08T03:41:41.197Z,980.44
2018-12-08T03:42:41.141Z,980.55
2018-12-08T03:43:41.083Z,980.55
2018-12-08T03:44:41.026Z,980.54
2018-12-08T03:45:40.966Z,980.49
2018-12-08T03:46:40.910Z,980.54
2018-12-08T03:47:40.850Z,980.52
2018-12-08T03:48:40.795Z,980.51
2018-12-08T03:49:40.737Z,980.54
2018-12-08T03:50:40.679Z,980.54
2018-12-08T03:51:40.622Z,980.49
2018-12-08T03:52:40.576Z,980.47
2018-12-08T03:53:40.507Z,980.58
2018-12-08T03:54:40.449Z,980.62
2018-12-08T03:55:40.392Z,980.60
2018-12-08T03:56:40.334Z,980.61
2018-12-08T03:57:40.278Z,980.56
2018-12-08T03:58:40.218Z,980.58
2018-12-08T03:59:40.161Z,980.55
2018-12-08T04:00:40.104Z,980.60
2018-12-08T04:01:40.044Z,980.54
2018-12-08T04:02:39.986Z,980.59
2018-12-08T04:03:39.931Z,980.58
2018-12-08T04:04:39.873Z,980.60
2018-12-08T04:05:39.818Z,980.60
2018-12-08T04:06:39.757Z,980.67
2018-12-08T04:07:39.699Z,980.57
2018-12-08T04:08:39.641Z,980.69
2018-12-08T04:09:39.584Z,980.68
2018-12-08T04:10:39.526Z,980.63
2018-12-08T04:11:39.469Z,980.58
2018-12-08T04:12:39.412Z,980.56
2018-12-08T04:13:39.354Z,980.58
2018-12-08T04:14:39.296Z,980.54
2018-12-08T04:15:39.237Z,980.55
2018-12-08T04:16:39.181Z,980.57
2018-12-08T04:17:39.127Z,980.65
2018-12-08T04:18:39.065Z,980.62
2018-12-08T04:19:39.006Z,980.67
2018-12-08T04:20:38.949Z,980.70
2018-12-08T04:21:38.892Z,980.76
2018-12-08T04:22:38.838Z,980.61
2018-12-08T04:23:38.775Z,980.70
2018-12-08T04:24:38.735Z,980.76
2018-12-08T04:25:38.662Z,980.70
2018-12-08T04:26:38.605Z,980.74
2018-12-08T04:27:38.546Z,980.81
2018-12-08T04:28:38.488Z,980.80
2018-12-08T04:29:38.430Z,980.78
2018-12-08T04:30:38.374Z,980.80
2018-12-08T04:31:38.317Z,980.80
2018-12-08T04:32:38.258Z,980.84
2018-12-08T04:33:38.199Z,980.75
2018-12-08T04:34:38.143Z,980.72
2018-12-08T04:35:38.083Z,980.73
2018-12-08T04:36:38.093Z,980.80
2018-12-08T04:37:37.970Z,980.81
2018-12-08T04:38:37.913Z,980.88
2018-12-08T04:39:37.853Z,980.79
2018-12-08T04:40:37.797Z,980.74
2018-12-08T04:41:37.738Z,980.78
2018-12-08T04:42:37.682Z,980.78
2018-12-08T04:43:37.622Z,980.75
2018-12-08T04:44:37.571Z,980.74
2018-12-08T04:45:37.507Z,980.79
2018-12-08T04:46:37.449Z,980.80
2018-12-08T04:47:37.394Z,980.73
2018-12-08T04:48:37.335Z,980.78
2018-12-08T04:49:37.277Z,980.73
2018-12-08T04:50:37.219Z,980.76
2018-12-08T04:51:37.161Z,980.89
2018-12-08T04:52:37.106Z,980.88
2018-12-08T04:53:37.046Z,980.78
2018-12-08T04:54:36.991Z,980.76
2018-12-08T04:55:36.930Z,980.66
2018-12-08T04:56:36.873Z,980.61
2018-12-08T04:57:36.815Z,980.62
2018-12-08T04:58:36.764Z,980.67
2018-12-08T04:59:36.699Z,980.77
2018-12-08T05:00:36.646Z,980.88
2018-12-08T05:01:36.585Z,980.83
2018-12-08T05:02:36.530Z,980.82
2018-12-08T05:03:36.469Z,980.74
2018-12-08T05:04:36.410Z,980.76
2018-12-08T05:05:36.353Z,980.79
2018-12-08T05:06:36.296Z,980.67
2018-12-08T05:07:36.238Z,980.64
2018-12-08T05:08:36.180Z,980.70
2018-12-08T05:09:36.198Z,980.70
2018-12-08T05:10:36.066Z,980.67
2018-12-08T05:11:36.007Z,980.62
2018-12-08T05:12:35.949Z,980.76
2018-12-08T05:13:35.896Z,980.69
2018-12-08T05:14:35.835Z,980.65
2018-12-08T05:15:35.776Z,980.67
2018-12-08T05:16:35.722Z,980.63
2018-12-08T05:17:35.661Z,980.70
2018-12-08T05:18:35.604Z,980.64
2018-12-08T05:19:35.545Z,980.65
2018-12-08T05:20:35.488Z,980.64
2018-12-08T05:21:35.432Z,980.57
2018-12-08T05:22:35.376Z,980.63
2018-12-08T05:23:35.314Z,980.62
2018-12-08T05:24:35.258Z,980.62
2018-12-08T05:25:35.199Z,980.62
2018-12-08T05:26:35.143Z,980.56
2018-12-08T05:27:35.083Z,980.65
2018-12-08T05:28:35.026Z,980.63
2018-12-08T05:29:34.969Z,980.71
2018-12-08T05:30:34.911Z,980.65
2018-12-08T05:31:34.854Z,980.68
2018-12-08T05:32:34.797Z,980.65
2018-12-08T05:33:34.738Z,980.66
2018-12-08T05:34:34.681Z,980.66
2018-12-08T05:35:34.626Z,980.66
2018-12-08T05:36:34.564Z,980.66
2018-12-08T05:37:34.506Z,980.60
2018-12-08T05:38:34.448Z,980.61
2018-12-08T05:39:34.396Z,980.61
2018-12-08T05:40:34.333Z,980.62
2018-12-08T05:41:34.275Z,980.66
2018-12-08T05:42:34.217Z,980.63
2018-12-08T05:43:34.161Z,980.69
2018-12-08T05:44:34.103Z,980.71
2018-12-08T05:45:34.046Z,980.74
2018-12-08T05:46:33.987Z,980.77
2018-12-08T05:47:33.931Z,980.82
2018-12-08T05:48:33.871Z,980.79
2018-12-08T05:49:33.815Z,980.83
2018-12-08T05:50:33.763Z,980.78
2018-12-08T05:51:33.698Z,980.79
2018-12-08T05:52:34.639Z,980.75
2018-12-08T05:53:33.585Z,980.78
2018-12-08T05:54:33.525Z,980.81
2018-12-08T05:55:33.466Z,980.77
2018-12-08T05:56:33.408Z,980.84
2018-12-08T05:57:33.352Z,980.82
2018-12-08T05:58:33.293Z,980.85
2018-12-08T05:59:33.235Z,980.83
2018-12-08T06:00:33.181Z,980.88
2018-12-08T06:01:33.126Z,980.84
2018-12-08T06:02:33.062Z,980.88
2018-12-08T06:03:33.005Z,980.95
2018-12-08T06:04:32.950Z,980.90
2018-12-08T06:05:32.888Z,980.91
2018-12-08T06:06:32.831Z,980.93
2018-12-08T06:07:32.777Z,980.86
2018-12-08T06:08:32.717Z,980.95
2018-12-08T06:09:32.658Z,980.95
2018-12-08T06:10:32.650Z,980.97
2018-12-08T06:11:32.541Z,980.98
2018-12-08T06:12:32.485Z,980.97
2018-12-08T06:13:32.426Z,980.95
2018-12-08T06:14:32.368Z,980.99
2018-12-08T06:15:32.310Z,980.98
2018-12-08T06:16:32.252Z,980.96
2018-12-08T06:17:32.194Z,981.06
2018-12-08T06:18:32.137Z,981.07
2018-12-08T06:19:32.080Z,981.03
2018-12-08T06:20:32.022Z,981.08
2018-12-08T06:21:31.965Z,981.09
2018-12-08T06:22:31.905Z,981.10
2018-12-08T06:23:31.849Z,981.11
2018-12-08T06:24:31.790Z,981.03
2018-12-08T06:25:31.733Z,981.07
2018-12-08T06:26:31.678Z,981.06
2018-12-08T06:27:31.645Z,981.11
2018-12-08T06:28:31.557Z,981.15
2018-12-08T06:29:31.546Z,981.18
2018-12-08T06:30:31.443Z,981.09
2018-12-08T06:31:31.389Z,981.15
2018-12-08T06:32:31.327Z,981.18
2018-12-08T06:33:31.269Z,981.14
2018-12-08T06:34:31.213Z,981.17
2018-12-08T06:35:31.152Z,981.17
2018-12-08T06:36:31.095Z,981.20
2018-12-08T06:37:31.041Z,981.20
2018-12-08T06:38:30.980Z,981.16
2018-12-08T06:39:30.923Z,981.25
2018-12-08T06:40:30.865Z,981.28
2018-12-08T06:41:30.807Z,981.31
2018-12-08T06:42:30.750Z,981.22
2018-12-08T06:43:30.689Z,981.24
2018-12-08T06:44:30.635Z,981.23
2018-12-08T06:45:30.574Z,981.28
2018-12-08T06:46:30.517Z,981.30
2018-12-08T06:47:30.459Z,981.34
2018-12-08T06:48:30.401Z,981.23
2018-12-08T06:49:30.348Z,981.26
2018-12-08T06:50:30.286Z,981.20
2018-12-08T06:51:30.230Z,981.17
2018-12-08T06:52:30.310Z,981.23
2018-12-08T06:53:30.114Z,981.18
2018-12-08T06:54:30.056Z,981.16
2018-12-08T06:55:29.997Z,981.20
2018-12-08T06:56:29.939Z,981.22
2018-12-08T06:57:29.883Z,981.16
2018-12-08T07:00:01.421Z,981.12
2018-12-08T07:01:01.285Z,981.12
2018-12-08T07:02:54.079Z,981.08
2018-12-08T07:03:54.010Z,981.07
2018-12-08T07:05:46.863Z,980.97
2018-12-08T07:06:46.738Z,980.97
2018-12-08T07:08:39.526Z,980.95
2018-12-08T07:09:39.461Z,980.92
2018-12-08T07:11:32.305Z,980.94
2018-12-08T07:12:32.180Z,980.89
2018-12-08T07:14:24.970Z,980.90
2018-12-08T07:15:24.901Z,980.88
2018-12-08T07:17:17.761Z,980.95
2018-12-08T07:18:17.625Z,980.93
2018-12-08T07:20:10.411Z,980.93
2018-12-08T07:21:10.348Z,980.95
2018-12-08T07:23:03.212Z,980.92
2018-12-08T07:24:03.071Z,980.90
2018-12-08T07:25:56.354Z,980.85
2018-12-08T07:26:56.295Z,980.84
2018-12-08T07:27:56.236Z,980.76
2018-12-08T07:28:56.175Z,980.84
2018-12-08T07:29:56.116Z,980.84
2018-12-08T07:30:56.063Z,980.84
2018-12-08T07:31:56.001Z,980.84
2018-12-08T07:32:55.944Z,980.79
2018-12-08T07:33:55.886Z,980.77
2018-12-08T07:34:55.828Z,980.78
2018-12-08T07:35:55.770Z,980.79
2018-12-08T07:36:55.711Z,980.81
2018-12-08T07:37:55.654Z,980.78
2018-12-08T07:38:55.600Z,980.81
2018-12-08T07:39:55.537Z,980.82
2018-12-08T07:40:55.479Z,980.86
2018-12-08T07:41:55.421Z,980.91
2018-12-08T07:42:55.367Z,980.90
2018-12-08T07:43:55.306Z,980.89
2018-12-08T07:44:55.248Z,980.86
2018-12-08T07:45:55.293Z,980.85
2018-12-08T07:46:55.132Z,980.82
2018-12-08T07:47:55.074Z,980.82
2018-12-08T07:48:55.016Z,980.86
2018-12-08T07:49:54.958Z,980.82
2018-12-08T07:50:54.900Z,980.81
2018-12-08T07:51:54.842Z,980.80
2018-12-08T07:52:54.787Z,980.75
2018-12-08T07:53:54.725Z,980.72
2018-12-08T07:54:54.667Z,980.71
2018-12-08T07:55:54.610Z,980.71
2018-12-08T07:56:54.553Z,980.73
2018-12-08T07:57:54.497Z,980.72
2018-12-08T07:58:54.439Z,980.70
2018-12-08T07:59:54.378Z,980.70
2018-12-08T08:00:54.324Z,980.67
2018-12-08T08:01:54.263Z,980.75
2018-12-08T08:02:54.207Z,980.74
2018-12-08T08:03:54.147Z,980.71
2018-12-08T08:04:54.090Z,980.76
2018-12-08T08:05:54.030Z,980.80
2018-12-08T08:06:53.974Z,980.68
2018-12-08T08:07:53.914Z,980.65
2018-12-08T08:08:53.857Z,980.74
2018-12-08T08:09:53.800Z,980.69
2018-12-08T08:10:53.740Z,980.70
2018-12-08T08:11:53.689Z,980.67
2018-12-08T08:12:53.625Z,980.71
2018-12-08T08:13:53.567Z,980.69
2018-12-08T08:14:53.611Z,980.67
2018-12-08T08:15:53.452Z,980.61
2018-12-08T08:16:53.392Z,980.54
2018-12-08T08:17:53.334Z,980.57
2018-12-08T08:18:53.276Z,980.57
2018-12-08T08:19:53.219Z,980.54
2018-12-08T08:20:53.163Z,980.54
2018-12-08T08:21:53.104Z,980.57
2018-12-08T08:22:53.046Z,980.52
2018-12-08T08:23:52.992Z,980.43
2018-12-08T08:24:52.930Z,980.50
2018-12-08T08:25:52.870Z,980.52
2018-12-08T08:26:52.811Z,980.57
2018-12-08T08:27:52.758Z,980.63
2018-12-08T08:28:52.696Z,980.55
2018-12-08T08:29:52.640Z,980.65
2018-12-08T08:30:52.583Z,980.61
2018-12-08T08:31:52.525Z,980.58
2018-12-08T08:32:52.465Z,980.49
2018-12-08T08:33:52.405Z,980.51
2018-12-08T08:34:52.348Z,980.47
2018-12-08T08:35:52.291Z,980.45
2018-12-08T08:36:52.234Z,980.31
2018-12-08T08:37:52.177Z,980.47
2018-12-08T08:38:52.117Z,980.30
2018-12-08T08:39:52.059Z,980.36
2018-12-08T08:40:52.002Z,980.39
2018-12-08T08:41:51.941Z,980.36
2018-12-08T08:42:51.898Z,980.31
2018-12-08T08:43:51.827Z,980.29
2018-12-08T08:44:51.770Z,980.30
2018-12-08T08:45:51.709Z,980.34
2018-12-08T08:46:51.656Z,980.33
2018-12-08T08:47:51.595Z,980.23
2018-12-08T08:48:51.538Z,980.21
2018-12-08T08:49:51.478Z,980.25
2018-12-08T08:50:51.420Z,980.24
2018-12-08T08:51:51.364Z,980.19
2018-12-08T08:52:51.306Z,980.20
2018-12-08T08:53:51.250Z,980.21
2018-12-08T08:54:51.191Z,980.22
2018-12-08T08:55:51.135Z,980.18
2018-12-08T08:56:51.074Z,980.22
2018-12-08T08:57:51.020Z,980.14
2018-12-08T08:58:50.956Z,980.20
2018-12-08T08:59:50.898Z,980.19
2018-12-08T09:00:52.238Z,980.17
2018-12-08T09:01:50.785Z,980.13
2018-12-08T09:02:50.723Z,980.06
2018-12-08T09:03:50.676Z,980.08
2018-12-08T09:04:50.614Z,980.03
2018-12-08T09:05:50.551Z,980.11
2018-12-08T09:06:50.492Z,980.14
2018-12-08T09:07:50.434Z,980.08
2018-12-08T09:08:50.377Z,980.02
2018-12-08T09:09:50.318Z,980.02
2018-12-08T09:10:50.263Z,980.03
2018-12-08T09:11:50.202Z,980.10
2018-12-08T09:12:50.146Z,980.07
2018-12-08T09:13:50.086Z,980.02
2018-12-08T09:14:50.032Z,980.00
2018-12-08T09:15:50.047Z,980.07
2018-12-08T09:16:49.912Z,979.99
2018-12-08T09:17:49.856Z,980.02
2018-12-08T09:18:49.797Z,980.00
2018-12-08T09:19:49.742Z,979.96
2018-12-08T09:20:49.680Z,979.91
2018-12-08T09:21:49.622Z,980.00
2018-12-08T09:22:49.567Z,979.92
2018-12-08T09:23:49.509Z,979.96
2018-12-08T09:24:49.448Z,979.93
2018-12-08T09:25:49.390Z,979.87
2018-12-08T09:26:49.333Z,979.95
2018-12-08T09:27:49.333Z,979.82
2018-12-08T09:28:49.217Z,979.80
2018-12-08T09:29:49.161Z,979.97
2018-12-08T09:30:49.100Z,979.89
2018-12-08T09:31:49.047Z,979.91
2018-12-08T09:32:48.984Z,979.94
2018-12-08T09:33:48.925Z,979.85
2018-12-08T09:34:48.869Z,979.83
2018-12-08T09:35:48.812Z,979.80
2018-12-08T09:36:48.752Z,979.82
2018-12-08T09:37:48.695Z,979.79
2018-12-08T09:38:48.636Z,979.85
2018-12-08T09:39:48.577Z,979.80
2018-12-08T09:40:48.521Z,979.79
2018-12-08T09:41:48.462Z,979.69
2018-12-08T09:42:48.404Z,979.71
2018-12-08T09:43:48.346Z,979.65
2018-12-08T09:44:48.288Z,979.71
2018-12-08T09:45:48.235Z,979.75
2018-12-08T09:46:48.172Z,979.73
2018-12-08T09:47:48.115Z,979.64
2018-12-08T09:48:48.055Z,979.62
2018-12-08T09:49:48.013Z,979.65
2018-12-08T09:50:47.940Z,979.68
2018-12-08T09:51:47.883Z,979.59
2018-12-08T09:52:47.823Z,979.66
2018-12-08T09:53:47.771Z,979.58
2018-12-08T09:54:47.709Z,979.58
2018-12-08T09:55:47.649Z,979.56
2018-12-08T09:56:47.595Z,979.50
2018-12-08T09:57:47.533Z,979.48
2018-12-08T09:58:47.477Z,979.53
2018-12-08T09:59:47.418Z,979.39
2018-12-08T10:00:47.361Z,979.58
2018-12-08T10:01:47.301Z,979.53
2018-12-08T10:02:47.246Z,979.52
2018-12-08T10:03:47.184Z,979.45
2018-12-08T10:04:47.128Z,979.46
2018-12-08T10:05:47.070Z,979.47
2018-12-08T10:06:47.010Z,979.38
2018-12-08T10:07:46.953Z,979.41
2018-12-08T10:08:46.896Z,979.36
2018-12-08T10:09:46.841Z,979.44
2018-12-08T10:10:46.780Z,979.51
2018-12-08T10:11:46.723Z,979.40
2018-12-08T10:12:46.665Z,979.34
2018-12-08T10:13:46.604Z,979.40
2018-12-08T10:14:46.547Z,979.39
2018-12-08T10:15:46.489Z,979.32
2018-12-08T10:16:46.431Z,979.24
2018-12-08T10:17:46.373Z,979.31
2018-12-08T10:18:46.316Z,979.34
2018-12-08T10:19:46.257Z,979.30
2018-12-08T10:20:46.283Z,979.32
2018-12-08T10:21:46.141Z,979.28
2018-12-08T10:22:46.098Z,979.25
2018-12-08T10:23:46.078Z,979.24
2018-12-08T10:24:45.968Z,979.34
2018-12-08T10:25:45.909Z,979.20
2018-12-08T10:26:45.851Z,979.31
2018-12-08T10:27:45.799Z,979.27
2018-12-08T10:28:45.736Z,979.18
2018-12-08T10:29:45.678Z,979.20
2018-12-08T10:30:45.618Z,979.24
2018-12-08T10:31:45.652Z,979.38
2018-12-08T10:32:45.503Z,979.08
2018-12-08T10:33:45.446Z,979.22
2018-12-08T10:34:45.385Z,979.26
2018-12-08T10:35:45.329Z,979.28
2018-12-08T10:36:45.273Z,979.24
2018-12-08T10:37:45.213Z,979.13
2018-12-08T10:38:45.153Z,979.22
2018-12-08T10:39:45.095Z,979.24
2018-12-08T10:40:45.039Z,979.25
2018-12-08T10:41:44.978Z,979.12
2018-12-08T10:42:44.921Z,979.15
2018-12-08T10:43:44.865Z,979.23
2018-12-08T10:44:44.811Z,979.32
2018-12-08T10:45:44.746Z,979.25
2018-12-08T10:46:44.688Z,979.23
2018-12-08T10:47:44.631Z,979.23
2018-12-08T10:48:44.574Z,979.28
2018-12-08T10:49:44.518Z,979.27
2018-12-08T10:50:44.456Z,979.24
2018-12-08T10:51:44.403Z,979.11
2018-12-08T10:52:44.340Z,979.15
2018-12-08T10:53:44.282Z,979.08
2018-12-08T10:54:44.229Z,979.13
2018-12-08T10:55:44.174Z,979.06
2018-12-08T10:56:44.108Z,979.12
2018-12-08T10:57:44.052Z,979.13
2018-12-08T10:58:43.993Z,979.09
2018-12-08T10:59:43.934Z,979.08
2018-12-08T11:00:43.876Z,979.29
2018-12-08T11:01:43.819Z,979.18
2018-12-08T11:02:43.759Z,979.12
2018-12-08T11:03:43.704Z,979.16
2018-12-08T11:04:43.643Z,979.15
2018-12-08T11:05:43.585Z,979.00
2018-12-08T11:06:43.538Z,979.06
2018-12-08T11:07:43.469Z,979.10
2018-12-08T11:08:43.411Z,979.05
2018-12-08T11:09:43.361Z,979.12
2018-12-08T11:10:43.311Z,979.10
2018-12-08T11:11:43.242Z,979.14
2018-12-08T11:12:43.180Z,979.10
2018-12-08T11:13:43.137Z,979.14
2018-12-08T11:14:43.063Z,979.12
2018-12-08T11:15:43.004Z,979.07
2018-12-08T11:16:42.945Z,979.09
2018-12-08T11:17:43.496Z,979.12
2018-12-08T11:18:42.831Z,979.08
2018-12-08T11:19:42.773Z,979.09
2018-12-08T11:20:42.714Z,979.08
2018-12-08T11:21:42.656Z,978.98
2018-12-08T11:22:42.601Z,978.94
2018-12-08T11:23:42.540Z,978.90
2018-12-08T11:24:42.482Z,978.96
2018-12-08T11:25:42.422Z,978.93
2018-12-08T11:26:42.366Z,979.02
2018-12-08T11:27:42.308Z,978.89
2018-12-08T11:28:42.249Z,978.90
2018-12-08T11:29:42.193Z,978.70
2018-12-08T11:30:42.133Z,978.86
2018-12-08T11:31:42.075Z,978.92
2018-12-08T11:32:42.022Z,978.91
2018-12-08T11:33:41.958Z,979.02
2018-12-08T11:34:41.901Z,978.96
2018-12-08T11:35:41.842Z,979.03
2018-12-08T11:36:49.359Z,978.92
2018-12-08T11:37:41.729Z,979.04
2018-12-08T11:38:41.668Z,978.98
2018-12-08T11:39:41.611Z,978.90
2018-12-08T11:40:41.554Z,978.97
2018-12-08T11:41:41.494Z,978.96
2018-12-08T11:42:41.437Z,978.91
2018-12-08T11:43:41.381Z,978.95
2018-12-08T11:44:41.321Z,978.85
2018-12-08T11:45:41.262Z,978.89
2018-12-08T11:46:41.204Z,978.85
2018-12-08T11:47:42.003Z,978.83
2018-12-08T11:48:41.089Z,978.84
2018-12-08T11:49:43.012Z,978.81
2018-12-08T11:50:40.972Z,978.82
2018-12-08T11:51:40.916Z,978.81
2018-12-08T11:52:40.856Z,978.80
2018-12-08T11:53:40.799Z,978.90
2018-12-08T11:54:40.739Z,978.89
2018-12-08T11:55:40.682Z,978.89
2018-12-08T11:56:40.706Z,978.89
2018-12-08T11:57:40.566Z,978.90
2018-12-08T11:58:40.513Z,978.84
2018-12-08T11:59:40.450Z,978.86
2018-12-08T12:00:40.393Z,978.75
2018-12-08T12:01:40.334Z,978.80
2018-12-08T12:02:40.277Z,978.81
2018-12-08T12:03:40.217Z,978.85
2018-12-08T12:04:40.161Z,978.86
2018-12-08T12:05:40.101Z,978.85
2018-12-08T12:06:41.005Z,978.89
2018-12-08T12:07:39.985Z,978.76
2018-12-08T12:08:39.928Z,978.87
2018-12-08T12:09:39.920Z,978.87
2018-12-08T12:10:39.811Z,978.81
2018-12-08T12:11:39.752Z,978.87
2018-12-08T12:12:39.695Z,978.85
2018-12-08T12:13:39.639Z,978.75
2018-12-08T12:14:39.578Z,978.92
2018-12-08T12:15:39.520Z,978.80
2018-12-08T12:16:39.461Z,978.75
2018-12-08T12:17:39.404Z,978.77
2018-12-08T12:18:39.347Z,978.75
2018-12-08T12:19:39.288Z,978.78
2018-12-08T12:20:39.230Z,978.82
2018-12-08T12:21:39.171Z,978.84
2018-12-08T12:22:39.113Z,978.82
2018-12-08T12:23:39.062Z,978.79
2018-12-08T12:24:39.000Z,978.85
2018-12-08T12:25:38.939Z,978.84
2018-12-08T12:26:38.881Z,978.72
2018-12-08T12:27:38.824Z,978.86
2018-12-08T12:28:38.765Z,978.80
2018-12-08T12:29:38.706Z,978.87
2018-12-08T12:30:38.649Z,978.90
2018-12-08T12:31:38.590Z,978.83
2018-12-08T12:32:38.541Z,978.80
2018-12-08T12:33:38.474Z,978.88
2018-12-08T12:34:38.417Z,978.82
2018-12-08T12:35:38.359Z,978.83
2018-12-08T12:36:38.303Z,978.82
2018-12-08T12:37:38.253Z,978.85
2018-12-08T12:38:38.187Z,978.77
2018-12-08T12:39:38.127Z,978.80
2018-12-08T12:40:38.068Z,978.78
2018-12-08T12:41:38.008Z,978.71
2018-12-08T12:42:37.951Z,978.93
2018-12-08T12:43:37.895Z,978.81
2018-12-08T12:44:37.836Z,978.77
2018-12-08T12:45:37.786Z,978.54
2018-12-08T12:46:37.729Z,978.77
2018-12-08T12:47:37.662Z,978.90
2018-12-08T12:48:37.604Z,978.84
2018-12-08T12:49:37.547Z,978.84
2018-12-08T12:50:37.494Z,978.85
2018-12-08T12:51:37.431Z,978.83
2018-12-08T12:52:37.372Z,978.80